Time,TemperatureF,DewpointF,PressureIn,WindDirection,WindDirectionDegrees,WindSpeedMPH,WindSpeedGustMPH,Humidity,HourlyPrecipIn,Conditions,Clouds,dailyrainin,SoftwareType,DateUTC
2013-04-05 00:01:00,43.2,25.0,29.94,WNW,301,0.0,0.0,49,0.00,,,0.00,weatherlink.com 1.10,2013-04-05 04:01:00,
2013-04-05 01:16:00,41.1,24.0,29.94,NW,310,0.0,1.0,51,0.00,,,0.00,weatherlink.com 1.10,2013-04-05 05:16:00,
2013-04-05 01:31:00,41.7,25.0,29.94,NNW,341,0.0,4.0,52,0.00,,,0.00,weatherlink.com 1.10,2013-04-05 05:31:00,
2013-04-05 01:46:00,40.8,28.0,29.95,NNE,15,0.0,3.0,60,0.00,,,0.00,weatherlink.com 1.10,2013-04-05 05:46:00,
2013-04-05 02:01:00,40.2,30.0,29.95,NNE,19,0.0,1.0,66,0.00,,,0.00,weatherlink.com 1.10,2013-04-05 06:01:00,
2013-04-05 02:16:00,39.7,30.0,29.96,NNE,20,0.0,1.0,69,0.00,,,0.00,weatherlink.com 1.10,2013-04-05 06:16:00,
2013-04-05 02:31:00,39.4,31.0,29.96,NNE,32,2.0,3.0,71,0.00,,,0.00,weatherlink.com 1.10,2013-04-05 06:31:00,
2013-04-05 02:46:00,39.5,32.0,29.96,NE,36,1.0,5.0,75,0.00,,,0.00,weatherlink.com 1.10,2013-04-05 06:46:00,
2013-04-05 03:01:00,38.8,32.0,29.96,WNW,301,1.0,5.0,77,0.00,,,0.00,weatherlink.com 1.10,2013-04-05 07:01:00,
2013-04-05 03:16:00,38.2,32.0,29.97,North,352,2.0,4.0,79,0.00,,,0.00,weatherlink.com 1.10,2013-04-05 07:16:00,
2013-04-05 03:31:00,37.6,32.0,29.97,NNE,30,1.0,4.0,81,0.00,,,0.00,weatherlink.com 1.10,2013-04-05 07:31:00,
2013-04-05 03:46:00,37.1,32.0,29.98,NE,41,0.0,8.0,82,0.00,,,0.00,weatherlink.com 1.10,2013-04-05 07:46:00,
2013-04-05 04:01:00,36.5,32.0,29.98,NNW,343,2.0,8.0,83,0.00,,,0.00,weatherlink.com 1.10,2013-04-05 08:01:00,
2013-04-05 04:16:00,35.9,32.0,29.99,NW,316,4.0,7.0,84,0.00,,,0.00,weatherlink.com 1.10,2013-04-05 08:16:00,
2013-04-05 04:32:00,35.5,31.0,30.00,WNW,290,2.0,9.0,84,0.00,,,0.00,weatherlink.com 1.10,2013-04-05 08:32:00,
2013-04-05 04:47:00,35.0,31.0,30.01,NNE,18,1.0,4.0,85,0.00,,,0.00,weatherlink.com 1.10,2013-04-05 08:47:00,
2013-04-05 05:02:00,34.4,31.0,30.01,NNE,32,1.0,4.0,86,0.00,,,0.00,weatherlink.com 1.10,2013-04-05 09:02:00,
2013-04-05 05:17:00,33.9,31.0,30.02,NE,39,0.0,3.0,87,0.00,,,0.00,weatherlink.com 1.10,2013-04-05 09:17:00,
2013-04-05 05:32:00,33.4,30.0,30.03,NNE,33,0.0,1.0,88,0.00,,,0.00,weatherlink.com 1.10,2013-04-05 09:32:00,
2013-04-05 05:47:00,33.7,31.0,30.03,NE,39,1.0,3.0,88,0.00,,,0.00,weatherlink.com 1.10,2013-04-05 09:47:00,
2013-04-05 06:02:00,33.6,30.0,30.04,NNW,330,0.0,2.0,87,0.00,,,0.00,weatherlink.com 1.10,2013-04-05 10:02:00,
2013-04-05 06:17:00,33.2,30.0,30.05,NNW,328,0.0,3.0,88,0.00,,,0.00,weatherlink.com 1.10,2013-04-05 10:17:00,
2013-04-05 06:32:00,33.1,30.0,30.05,NE,49,2.0,4.0,89,0.00,,,0.00,weatherlink.com 1.10,2013-04-05 10:32:00,
2013-04-05 06:47:00,33.5,30.0,30.06,NNW,330,1.0,3.0,88,0.00,,,0.00,weatherlink.com 1.10,2013-04-05 10:47:00,
2013-04-05 07:02:00,33.2,30.0,30.07,NW,307,2.0,3.0,89,0.00,,,0.00,weatherlink.com 1.10,2013-04-05 11:02:00,
2013-04-05 07:17:00,33.3,30.0,30.07,North,357,3.0,4.0,87,0.00,,,0.00,weatherlink.com 1.10,2013-04-05 11:17:00,
2013-04-05 07:32:00,33.4,29.0,30.08,NNW,334,1.0,5.0,85,0.00,,,0.00,weatherlink.com 1.10,2013-04-05 11:32:00,
2013-04-05 07:47:00,33.3,28.0,30.09,NW,321,2.0,4.0,80,0.00,,,0.00,weatherlink.com 1.10,2013-04-05 11:47:00,
2013-04-05 08:02:00,33.9,26.0,30.09,NNW,336,5.0,8.0,73,0.00,,,0.00,weatherlink.com 1.10,2013-04-05 12:02:00,
2013-04-05 08:17:00,34.4,25.0,30.10,NW,323,1.0,7.0,69,0.00,,,0.00,weatherlink.com 1.10,2013-04-05 12:17:00,
2013-04-05 08:32:00,34.8,25.0,30.11,NNW,340,6.0,7.0,68,0.00,,,0.00,weatherlink.com 1.10,2013-04-05 12:32:00,
2013-04-05 08:47:00,34.8,24.0,30.11,NW,319,6.0,14.0,65,0.00,,,0.00,weatherlink.com 1.10,2013-04-05 12:47:00,
2013-04-05 09:02:00,35.1,22.0,30.12,WNW,297,7.0,13.0,59,0.00,,,0.00,weatherlink.com 1.10,2013-04-05 13:02:00,
2013-04-05 09:17:00,35.4,22.0,30.12,NW,309,5.0,13.0,58,0.00,,,0.00,weatherlink.com 1.10,2013-04-05 13:17:00,
2013-04-05 09:32:00,36.1,22.0,30.12,WNW,302,5.0,10.0,57,0.00,,,0.00,weatherlink.com 1.10,2013-04-05 13:32:00,
2013-04-05 09:47:00,36.7,23.0,30.12,North,359,1.0,9.0,57,0.00,,,0.00,weatherlink.com 1.10,2013-04-05 13:47:00,
2013-04-05 10:02:00,37.2,22.0,30.12,North,5,1.0,9.0,55,0.00,,,0.00,weatherlink.com 1.10,2013-04-05 14:02:00,
2013-04-05 10:20:00,37.2,22.0,30.13,NE,53,7.0,10.0,55,0.00,,,0.00,weatherlink.com 1.10,2013-04-05 14:20:00,
2013-04-05 10:33:00,37.7,22.0,30.13,NW,317,6.0,11.0,53,0.00,,,0.00,weatherlink.com 1.10,2013-04-05 14:33:00,
2013-04-05 10:48:00,38.4,22.0,30.14,NW,315,3.0,11.0,52,0.00,,,0.00,weatherlink.com 1.10,2013-04-05 14:48:00,
2013-04-05 11:03:00,38.9,21.0,30.14,NNE,13,4.0,13.0,48,0.00,,,0.00,weatherlink.com 1.10,2013-04-05 15:03:00,
2013-04-05 11:18:00,39.1,20.0,30.14,NW,317,3.0,11.0,47,0.00,,,0.00,weatherlink.com 1.10,2013-04-05 15:18:00,
2013-04-05 11:33:00,40.0,21.0,30.14,NE,44,6.0,10.0,46,0.00,,,0.00,weatherlink.com 1.10,2013-04-05 15:33:00,
2013-04-05 11:48:00,40.1,21.0,30.15,NE,44,5.0,11.0,46,0.00,,,0.00,weatherlink.com 1.10,2013-04-05 15:48:00,
2013-04-05 12:03:00,40.3,22.0,30.14,NE,37,4.0,12.0,48,0.00,,,0.00,weatherlink.com 1.10,2013-04-05 16:03:00,
2013-04-05 12:18:00,40.4,20.0,30.14,NW,320,4.0,14.0,44,0.00,,,0.00,weatherlink.com 1.10,2013-04-05 16:18:00,
2013-04-05 12:33:00,40.7,21.0,30.15,NNE,25,5.0,11.0,46,0.00,,,0.00,weatherlink.com 1.10,2013-04-05 16:33:00,
2013-04-05 12:48:00,42.0,22.0,30.15,West,281,2.0,10.0,46,0.00,,,0.00,weatherlink.com 1.10,2013-04-05 16:48:00,
2013-04-05 13:03:00,42.4,21.0,30.14,NNW,333,2.0,7.0,43,0.00,,,0.00,weatherlink.com 1.10,2013-04-05 17:03:00,
2013-04-05 13:18:00,42.6,23.0,30.14,NE,45,2.0,12.0,47,0.00,,,0.00,weatherlink.com 1.10,2013-04-05 17:18:00,
2013-04-05 13:33:00,44.3,23.0,30.15,NE,36,6.0,6.0,43,0.00,,,0.00,weatherlink.com 1.10,2013-04-05 17:33:00,
2013-04-05 13:48:00,43.1,22.0,30.14,ENE,62,4.0,6.0,44,0.00,,,0.00,weatherlink.com 1.10,2013-04-05 17:48:00,
2013-04-05 14:03:00,43.1,22.0,30.14,West,260,4.0,10.0,44,0.00,,,0.00,weatherlink.com 1.10,2013-04-05 18:03:00,
2013-04-05 14:18:00,43.0,23.0,30.14,WNW,295,2.0,14.0,45,0.00,,,0.00,weatherlink.com 1.10,2013-04-05 18:18:00,
2013-04-05 14:33:00,44.3,25.0,30.14,NW,309,2.0,8.0,46,0.00,,,0.00,weatherlink.com 1.10,2013-04-05 18:33:00,
2013-04-05 14:48:00,45.0,25.0,30.13,West,270,1.0,11.0,45,0.00,,,0.00,weatherlink.com 1.10,2013-04-05 18:48:00,
2013-04-05 15:03:00,45.2,24.0,30.12,WSW,257,1.0,8.0,44,0.00,,,0.00,weatherlink.com 1.10,2013-04-05 19:03:00,
2013-04-05 15:18:00,45.2,24.0,30.12,NW,305,4.0,11.0,44,0.00,,,0.00,weatherlink.com 1.10,2013-04-05 19:18:00,
2013-04-05 15:33:00,45.2,23.0,30.12,NW,304,3.0,9.0,41,0.00,,,0.00,weatherlink.com 1.10,2013-04-05 19:33:00,
2013-04-05 15:48:00,46.1,22.0,30.11,NW,321,4.0,8.0,39,0.00,,,0.00,weatherlink.com 1.10,2013-04-05 19:48:00,
2013-04-05 16:03:00,45.7,24.0,30.11,ESE,113,0.0,7.0,43,0.00,,,0.00,weatherlink.com 1.10,2013-04-05 20:03:00,
2013-04-05 16:18:00,45.3,20.0,30.11,ENE,73,1.0,8.0,37,0.00,,,0.00,weatherlink.com 1.10,2013-04-05 20:18:00,
2013-04-05 16:33:00,45.6,19.0,30.11,NW,310,6.0,10.0,35,0.00,,,0.00,weatherlink.com 1.10,2013-04-05 20:33:00,
2013-04-05 16:48:00,44.7,20.0,30.10,West,259,3.0,11.0,37,0.00,,,0.00,weatherlink.com 1.10,2013-04-05 20:48:00,
2013-04-05 17:03:00,45.4,20.0,30.10,WNW,293,4.0,10.0,37,0.00,,,0.00,weatherlink.com 1.10,2013-04-05 21:03:00,
2013-04-05 17:18:00,46.3,20.0,30.10,NW,319,2.0,6.0,35,0.00,,,0.00,weatherlink.com 1.10,2013-04-05 21:18:00,
2013-04-05 17:33:00,45.7,18.0,30.11,NW,319,3.0,10.0,33,0.00,,,0.00,weatherlink.com 1.10,2013-04-05 21:33:00,
2013-04-05 17:48:00,46.7,20.0,30.11,NNE,22,0.0,6.0,34,0.00,,,0.00,weatherlink.com 1.10,2013-04-05 21:48:00,
2013-04-05 18:03:00,46.1,18.0,30.12,NNW,342,9.0,11.0,33,0.00,,,0.00,weatherlink.com 1.10,2013-04-05 22:03:00,
2013-04-05 18:18:00,45.6,18.0,30.12,NW,314,5.0,10.0,33,0.00,,,0.00,weatherlink.com 1.10,2013-04-05 22:18:00,
2013-04-05 18:33:00,45.6,19.0,30.12,East,96,0.0,7.0,34,0.00,,,0.00,weatherlink.com 1.10,2013-04-05 22:33:00,
2013-04-05 18:48:00,45.1,17.0,30.13,NW,305,3.0,8.0,33,0.00,,,0.00,weatherlink.com 1.10,2013-04-05 22:48:00,
2013-04-05 19:03:00,44.0,17.0,30.13,WNW,284,4.0,9.0,34,0.00,,,0.00,weatherlink.com 1.10,2013-04-05 23:03:00,
2013-04-05 19:18:00,43.5,17.0,30.14,NW,310,3.0,7.0,34,0.00,,,0.00,weatherlink.com 1.10,2013-04-05 23:18:00,
2013-04-05 19:33:00,43.0,17.0,30.14,North,355,0.0,4.0,35,0.00,,,0.00,weatherlink.com 1.10,2013-04-05 23:33:00,
2013-04-05 19:48:00,42.5,17.0,30.14,NNE,23,0.0,1.0,36,0.00,,,0.00,weatherlink.com 1.10,2013-04-05 23:48:00,
2013-04-05 20:03:00,41.8,17.0,30.15,NNW,329,0.0,2.0,37,0.00,,,0.00,weatherlink.com 1.10,2013-04-06 00:03:00,
2013-04-05 20:18:00,40.8,20.0,30.15,East,81,0.0,4.0,44,0.00,,,0.00,weatherlink.com 1.10,2013-04-06 00:18:00,
2013-04-05 20:33:00,39.7,20.0,30.16,NNE,32,0.0,2.0,46,0.00,,,0.00,weatherlink.com 1.10,2013-04-06 00:33:00,
2013-04-05 20:48:00,38.2,20.0,30.16,NNW,339,0.0,1.0,48,0.00,,,0.00,weatherlink.com 1.10,2013-04-06 00:48:00,
2013-04-05 21:03:00,36.6,20.0,30.17,SE,129,0.0,1.0,51,0.00,,,0.00,weatherlink.com 1.10,2013-04-06 01:03:00,
2013-04-05 21:33:00,34.1,18.0,30.18,ESE,120,0.0,0.0,53,0.00,,,0.00,weatherlink.com 1.10,2013-04-06 01:33:00,
2013-04-05 22:33:00,32.0,18.0,30.19,ESE,120,0.0,0.0,57,0.00,,,0.00,weatherlink.com 1.10,2013-04-06 02:33:00,
2013-04-05 22:49:00,33.7,21.0,30.19,ESE,115,0.0,4.0,60,0.00,,,0.00,weatherlink.com 1.10,2013-04-06 02:49:00,
2013-04-05 23:04:00,33.5,22.0,30.20,East,87,0.0,2.0,62,0.00,,,0.00,weatherlink.com 1.10,2013-04-06 03:04:00,
2013-04-05 23:19:00,32.6,22.0,30.20,East,82,3.0,5.0,66,0.00,,,0.00,weatherlink.com 1.10,2013-04-06 03:19:00,
2013-04-05 23:49:00,31.8,24.0,30.20,East,82,2.0,4.0,72,0.00,,,0.00,weatherlink.com 1.10,2013-04-06 03:49:00,